F45

North Palm Beach County General Aviation Airport

West Palm Beach, Florida, USA
METAR KF45 251730Z AUTO 27009G19KT 10SM CLR 27/13 A2996 RMK AO2
Observed Flight Rules
Apr-25 @ 17:30 UTC (40 minutes ago) Visual Flight Rules
Wind Visibility Clouds
270° at 9 knots
 Gusting to 19 knots
10 miles
  • Clear skies
Temperatures Readings
Current 27°C / 81°F
Dewpoint 13°C / 55°F
Humidity 42%
Altimeter 29.96" Hg
Pressure 1015 hPa
METAR KF45 251730Z AUTO 27009G19KT 10SM CLR 27/13 A2996 RMK AO2
Observed Flight Rules
Apr-25 @ 17:30 UTC
(40 minutes ago)
VFR
Wind Visibility
270° at 9 knots
 Gusting to 19 knots
10 miles
Clouds
  • Clear skies
Temperature Dewpoint
27°C / 81°F 13°C / 55°F
Humidity Altimeter Pressure
42% 29.96" Hg 1015 hPa